Time;durP1;ratioP1;P1;durP2;ratioP2;P2;SDS_P1;SDS_P2;PMS_P1;PMS_P2;Temp;Humidity;BMP_temperature;BMP_pressure;BME280_temperature;BME280_humidity;BME280_pressure;Samples;Min_cycle;Max_cycle;Signal;HPM_P1;HPM_P2
2022/03/11 00:01:35;;;;;;;8.07;3.50;;;21.10;64.10;;;;;;7871297;28;20580;-47
2022/03/11 00:05:21;;;;;;;5.03;3.30;;;21.10;64.00;;;;;;7871568;28;20177;-46
2022/03/11 00:09:06;;;;;;;6.57;3.92;;;21.00;64.10;;;;;;7871419;28;20180;-47
2022/03/11 00:12:52;;;;;;;10.77;3.58;;;21.00;64.00;;;;;;7871117;28;20205;-46
2022/03/11 00:16:37;;;;;;;6.10;3.70;;;21.00;64.10;;;;;;7870429;28;20793;-46
2022/03/11 00:20:24;;;;;;;5.18;3.20;;;20.90;64.00;;;;;;7870683;28;20178;-46
2022/03/11 00:24:10;;;;;;;7.30;3.53;;;20.90;63.90;;;;;;7870805;28;20204;-47
2022/03/11 00:27:55;;;;;;;5.47;3.20;;;20.90;63.90;;;;;;7870653;28;20181;-46
2022/03/11 00:31:41;;;;;;;4.47;3.40;;;20.90;63.80;;;;;;7870216;28;20209;-48
2022/03/11 00:35:26;;;;;;;5.88;3.58;;;20.80;63.80;;;;;;7870346;28;20197;-46
2022/03/11 00:39:12;;;;;;;5.03;3.58;;;20.80;63.80;;;;;;7870099;28;20833;-46
2022/03/11 00:42:57;;;;;;;4.22;3.10;;;20.80;63.70;;;;;;7870086;28;20554;-47
2022/03/11 00:46:43;;;;;;;8.10;3.22;;;20.80;63.70;;;;;;7870197;28;20196;-48
2022/03/11 00:50:28;;;;;;;4.28;3.17;;;20.70;63.70;;;;;;7869786;28;20188;-46
2022/03/11 00:54:14;;;;;;;7.32;3.55;;;20.80;63.80;;;;;;7869863;28;20213;-46
2022/03/11 00:57:59;;;;;;;4.95;3.60;;;20.70;63.80;;;;;;7869930;28;20185;-46
2022/03/11 01:01:45;;;;;;;4.53;3.38;;;20.70;63.70;;;;;;7869302;28;20262;-45
2022/03/11 01:05:30;;;;;;;8.20;3.95;;;20.70;63.70;;;;;;7869592;28;20555;-46
2022/03/11 01:09:16;;;;;;;5.25;3.35;;;20.60;63.70;;;;;;7868816;28;20181;-48
2022/03/11 01:13:01;;;;;;;5.22;3.38;;;20.60;63.60;;;;;;7869392;28;20216;-46
2022/03/11 01:16:47;;;;;;;5.13;3.28;;;20.60;63.50;;;;;;7870031;28;20662;-47
2022/03/11 01:20:32;;;;;;;4.90;3.38;;;20.50;63.40;;;;;;7869288;28;20165;-48
2022/03/11 01:24:17;;;;;;;6.40;3.35;;;20.50;63.50;;;;;;7869296;28;20200;-47
2022/03/11 01:28:03;;;;;;;5.13;3.10;;;20.60;63.60;;;;;;7869336;28;20177;-47
2022/03/11 01:31:52;;;;;;;4.60;2.97;;;20.50;63.50;;;;;;7868976;28;20201;-46
2022/03/11 01:35:38;;;;;;;5.90;3.58;;;20.50;63.40;;;;;;7869188;28;20177;-47
2022/03/11 01:39:23;;;;;;;4.95;2.80;;;20.50;64.00;;;;;;7869090;28;20252;-46
2022/03/11 01:43:16;;;;;;;4.07;3.22;;;20.40;63.40;;;;;;7869146;28;20199;-49
2022/03/11 01:47:02;;;;;;;3.78;3.13;;;20.40;63.10;;;;;;7869164;28;20181;-46
2022/03/11 01:50:48;;;;;;;5.57;3.30;;;20.40;63.00;;;;;;7868875;28;20242;-49
2022/03/11 01:54:34;;;;;;;4.47;3.13;;;20.40;63.20;;;;;;7868825;28;20258;-48
2022/03/11 01:58:22;;;;;;;5.95;4.10;;;20.30;63.10;;;;;;7869016;28;20169;-46
2022/03/11 02:02:07;;;;;;;5.68;3.60;;;20.30;62.30;;;;;;7868364;28;20219;-48
2022/03/11 02:05:53;;;;;;;4.93;3.20;;;20.30;62.20;;;;;;7868730;28;20185;-47
2022/03/11 02:09:38;;;;;;;3.80;2.92;;;20.30;62.80;;;;;;7868541;28;20177;-47
2022/03/11 02:13:24;;;;;;;5.95;3.63;;;20.30;61.80;;;;;;7868665;28;20292;-47
2022/03/11 02:17:09;;;;;;;7.72;4.18;;;20.20;61.70;;;;;;7868529;28;20181;-48
2022/03/11 02:20:55;;;;;;;4.80;3.05;;;20.30;61.70;;;;;;7868334;28;20181;-46
2022/03/11 02:24:40;;;;;;;5.43;3.50;;;20.20;61.80;;;;;;7868387;28;20212;-47
2022/03/11 02:28:32;;;;;;;4.90;3.33;;;20.20;61.10;;;;;;7868357;28;20182;-48
2022/03/11 02:32:18;;;;;;;5.07;3.60;;;20.20;60.50;;;;;;7867954;28;20220;-47
2022/03/11 02:36:04;;;;;;;5.07;3.25;;;20.20;60.80;;;;;;7868281;28;20170;-46
2022/03/11 02:39:49;;;;;;;8.68;3.45;;;20.20;61.10;;;;;;7870713;28;20174;-49
2022/03/11 02:43:36;;;;;;;5.28;3.70;;;20.20;61.50;;;;;;7874270;28;20205;-46
2022/03/11 02:47:22;;;;;;;5.32;3.58;;;20.10;60.70;;;;;;7873669;28;20189;-47
2022/03/11 02:51:07;;;;;;;7.45;3.75;;;20.10;61.00;;;;;;7873256;28;20532;-46
2022/03/11 02:54:53;;;;;;;5.22;3.60;;;20.10;60.20;;;;;;7873413;28;20213;-47
2022/03/11 02:58:39;;;;;;;5.45;3.40;;;20.10;60.30;;;;;;7873344;28;20193;-48
2022/03/11 03:02:26;;;;;;;5.53;3.88;;;20.00;60.10;;;;;;7872895;28;20209;-47
2022/03/11 03:06:11;;;;;;;4.93;3.53;;;20.10;60.10;;;;;;7873198;28;20307;-46
2022/03/11 03:09:58;;;;;;;4.57;3.08;;;20.00;60.20;;;;;;7872870;28;20181;-48
2022/03/11 03:13:43;;;;;;;7.85;3.60;;;20.00;60.20;;;;;;7872937;28;20210;-46
2022/03/11 03:17:29;;;;;;;5.97;3.50;;;20.00;60.10;;;;;;7873066;28;20177;-47
2022/03/11 03:21:14;;;;;;;4.53;3.53;;;20.00;60.20;;;;;;7872519;28;20173;-46
2022/03/11 03:25:00;;;;;;;5.93;3.72;;;20.00;60.00;;;;;;7872755;28;20182;-47
2022/03/11 03:28:45;;;;;;;5.65;3.55;;;20.00;60.10;;;;;;7872662;28;20177;-46
2022/03/11 03:32:31;;;;;;;6.15;3.78;;;20.00;60.00;;;;;;7872213;28;20209;-48
2022/03/11 03:36:17;;;;;;;5.13;3.45;;;20.00;60.00;;;;;;7872884;28;20659;-46
2022/03/11 03:40:04;;;;;;;5.18;3.75;;;19.90;60.10;;;;;;7872843;28;20218;-46
2022/03/11 03:43:49;;;;;;;6.00;3.65;;;19.90;60.00;;;;;;7872639;28;20204;-46
2022/03/11 03:47:35;;;;;;;6.10;3.72;;;19.90;60.00;;;;;;7872401;28;20177;-46
2022/03/11 03:51:20;;;;;;;4.05;3.25;;;19.90;60.10;;;;;;7870813;28;20196;-46
2022/03/11 03:55:07;;;;;;;6.18;3.92;;;19.90;60.10;;;;;;7871969;28;20176;-48
2022/03/11 03:58:52;;;;;;;7.07;4.20;;;19.90;60.00;;;;;;7871616;28;20176;-46
2022/03/11 04:02:44;;;;;;;5.18;3.40;;;19.90;60.10;;;;;;7870903;28;20209;-47
2022/03/11 04:06:34;;;;;;;6.60;3.60;;;19.90;60.00;;;;;;7871407;28;20272;-47
2022/03/11 04:10:20;;;;;;;5.22;3.90;;;19.90;60.00;;;;;;7871619;28;20189;-47
2022/03/11 04:14:05;;;;;;;6.20;3.78;;;19.80;59.90;;;;;;7871208;28;20262;-46
2022/03/11 04:17:50;;;;;;;5.38;3.72;;;19.90;59.90;;;;;;7871090;28;20185;-46
2022/03/11 04:21:36;;;;;;;5.28;3.95;;;19.80;59.90;;;;;;7870678;28;20201;-47
2022/03/11 04:25:23;;;;;;;5.35;3.80;;;19.90;60.00;;;;;;7870844;28;20173;-46
2022/03/11 04:29:09;;;;;;;6.47;3.90;;;19.90;60.00;;;;;;7870597;28;20250;-45
2022/03/11 04:32:54;;;;;;;6.15;3.97;;;19.80;60.00;;;;;;7870420;28;20205;-47
2022/03/11 04:36:40;;;;;;;5.32;3.63;;;19.80;59.90;;;;;;7870491;28;20646;-46
2022/03/11 04:40:25;;;;;;;5.85;3.67;;;19.80;59.90;;;;;;7870173;28;20182;-46
2022/03/11 04:44:11;;;;;;;6.43;3.85;;;19.90;60.70;;;;;;7870035;28;20201;-48
2022/03/11 04:47:56;;;;;;;6.03;3.60;;;19.90;59.90;;;;;;7868194;28;20184;-47
2022/03/11 04:51:42;;;;;;;6.10;3.92;;;19.90;60.00;;;;;;7869128;28;20212;-47
2022/03/11 04:55:28;;;;;;;8.70;4.20;;;19.90;59.80;;;;;;7869630;28;20180;-46
2022/03/11 04:59:13;;;;;;;6.80;3.78;;;19.90;59.70;;;;;;7869383;28;20256;-47
2022/03/11 05:02:59;;;;;;;7.82;4.47;;;19.90;59.60;;;;;;7869238;28;20693;-46
2022/03/11 05:06:44;;;;;;;8.05;4.25;;;19.90;59.60;;;;;;7869619;28;20586;-47
2022/03/11 05:10:30;;;;;;;7.10;4.55;;;20.00;59.50;;;;;;7869114;28;20177;-46
2022/03/11 05:14:15;;;;;;;5.18;3.70;;;20.00;59.50;;;;;;7869289;28;20270;-47
2022/03/11 05:18:00;;;;;;;6.32;3.63;;;20.00;59.40;;;;;;7869596;28;20168;-48
2022/03/11 05:21:46;;;;;;;5.95;4.07;;;20.00;59.40;;;;;;7868869;28;20196;-48
2022/03/11 05:25:31;;;;;;;6.00;3.85;;;20.00;59.40;;;;;;7869605;28;20177;-47
2022/03/11 05:29:17;;;;;;;6.97;3.78;;;20.00;59.40;;;;;;7868945;28;20261;-48
2022/03/11 05:33:04;;;;;;;8.75;3.85;;;20.00;59.30;;;;;;7869189;28;20217;-46
2022/03/11 05:36:50;;;;;;;6.03;3.58;;;20.00;59.40;;;;;;7869569;28;20173;-46
2022/03/11 05:40:35;;;;;;;5.35;3.53;;;20.10;59.40;;;;;;7868828;28;20231;-46
2022/03/11 05:44:22;;;;;;;7.05;3.95;;;20.10;59.30;;;;;;7868998;28;20732;-47
2022/03/11 05:48:09;;;;;;;8.43;4.22;;;20.10;59.40;;;;;;7865993;28;20681;-46
2022/03/11 05:51:54;;;;;;;5.65;4.05;;;20.10;59.70;;;;;;7862068;28;20695;-47
2022/03/11 05:55:40;;;;;;;11.45;3.80;;;20.10;59.80;;;;;;7868559;28;20534;-48
2022/03/11 05:59:26;;;;;;;9.43;4.63;;;20.10;59.50;;;;;;7868363;28;20226;-46
2022/03/11 06:03:12;;;;;;;8.57;3.97;;;20.10;59.40;;;;;;7868435;28;20235;-47
2022/03/11 06:06:57;;;;;;;6.03;3.92;;;20.20;59.40;;;;;;7868861;28;20224;-47
2022/03/11 06:10:43;;;;;;;14.00;4.82;;;20.20;59.30;;;;;;7868255;28;20182;-48
2022/03/11 06:14:28;;;;;;;6.88;4.07;;;20.20;59.30;;;;;;7870515;28;20209;-49
2022/03/11 06:18:17;;;;;;;7.10;4.13;;;20.20;59.20;;;;;;7875357;28;20162;-51
2022/03/11 06:22:03;;;;;;;8.07;4.20;;;20.30;59.30;;;;;;7873939;28;20189;-46
2022/03/11 06:25:49;;;;;;;9.13;3.92;;;20.30;59.30;;;;;;7874581;28;20200;-46
2022/03/11 06:29:34;;;;;;;5.88;4.05;;;20.30;59.30;;;;;;7874049;28;20533;-46
2022/03/11 06:33:22;;;;;;;7.97;3.65;;;20.30;59.40;;;;;;7874415;28;20232;-46
2022/03/11 06:37:08;;;;;;;5.10;3.78;;;20.30;59.60;;;;;;7874166;28;20632;-47
2022/03/11 06:40:54;;;;;;;6.15;3.83;;;20.30;59.50;;;;;;7873266;28;20318;-46
2022/03/11 06:44:40;;;;;;;7.80;4.13;;;20.30;59.60;;;;;;7873837;28;20684;-48
2022/03/11 06:48:25;;;;;;;7.88;3.72;;;20.40;59.60;;;;;;7873812;28;20530;-47
2022/03/11 06:52:12;;;;;;;7.13;3.58;;;20.30;59.70;;;;;;7872931;28;20209;-47
2022/03/11 06:55:58;;;;;;;6.38;3.90;;;20.30;59.90;;;;;;7871827;28;20177;-47
2022/03/11 06:59:45;;;;;;;6.78;3.90;;;20.40;59.90;;;;;;7852058;28;20178;-46
2022/03/11 07:03:30;;;;;;;5.53;3.88;;;20.40;59.90;;;;;;7872796;28;20746;-46
2022/03/11 07:07:16;;;;;;;5.05;3.25;;;20.40;60.00;;;;;;7872892;28;20183;-47
2022/03/11 07:11:02;;;;;;;7.30;4.13;;;20.40;60.00;;;;;;7873118;28;20757;-45
2022/03/11 07:14:48;;;;;;;8.75;3.92;;;20.40;59.80;;;;;;7857289;28;20209;-47
2022/03/11 07:18:34;;;;;;;8.43;4.20;;;20.40;59.90;;;;;;7854642;28;20514;-48
2022/03/11 07:22:20;;;;;;;13.73;4.03;;;20.40;60.00;;;;;;7872563;28;20193;-46
2022/03/11 07:26:05;;;;;;;16.45;4.47;;;20.40;60.00;;;;;;7872736;28;20635;-46
2022/03/11 07:29:51;;;;;;;15.98;4.35;;;20.50;60.00;;;;;;7860707;28;20202;-45
2022/03/11 07:33:37;;;;;;;7.60;4.15;;;20.40;59.40;;;;;;7841599;28;20205;-49
2022/03/11 07:37:23;;;;;;;9.80;4.13;;;20.50;59.10;;;;;;7861844;28;20192;-47
2022/03/11 07:41:11;;;;;;;22.25;4.90;;;20.50;59.00;;;;;;7871731;28;20165;-46
2022/03/11 07:44:57;;;;;;;14.48;4.30;;;20.50;59.30;;;;;;7872228;28;20237;-46
2022/03/11 07:48:43;;;;;;;8.80;4.18;;;20.50;59.20;;;;;;7871971;28;20182;-47
2022/03/11 07:52:28;;;;;;;11.48;3.90;;;20.50;59.00;;;;;;7871589;28;20220;-47
2022/03/11 07:56:15;;;;;;;10.88;3.88;;;20.40;58.90;;;;;;7869628;28;20201;-48
2022/03/11 08:00:00;;;;;;;11.73;4.00;;;20.40;59.20;;;;;;7871355;28;20177;-46
2022/03/11 08:03:46;;;;;;;13.25;4.25;;;20.50;59.10;;;;;;7871212;28;20217;-46
2022/03/11 08:07:34;;;;;;;12.77;4.03;;;20.50;59.10;;;;;;7871238;28;20600;-46
2022/03/11 08:11:19;;;;;;;10.70;3.90;;;20.50;59.20;;;;;;7870754;28;20188;-46
2022/03/11 08:15:06;;;;;;;10.25;3.75;;;20.50;59.30;;;;;;7871615;28;20197;-47
2022/03/11 08:18:51;;;;;;;6.80;3.90;;;20.50;59.20;;;;;;7867349;28;20182;-47
2022/03/11 08:22:37;;;;;;;10.35;4.18;;;20.50;59.30;;;;;;7839989;28;20217;-46
2022/03/11 08:26:23;;;;;;;8.10;4.25;;;20.50;59.40;;;;;;7839890;28;20182;-47
2022/03/11 08:30:10;;;;;;;6.68;4.20;;;20.50;59.30;;;;;;7865591;28;20177;-47
2022/03/11 08:33:55;;;;;;;7.78;3.95;;;20.50;59.50;;;;;;7857865;28;20213;-45
2022/03/11 08:37:41;;;;;;;8.48;3.60;;;20.50;59.60;;;;;;7838859;28;20559;-47
2022/03/11 08:41:27;;;;;;;10.30;3.80;;;20.50;59.80;;;;;;7839582;28;20205;-47
2022/03/11 08:45:13;;;;;;;9.65;4.07;;;20.50;59.50;;;;;;7840089;28;20256;-47
2022/03/11 08:48:59;;;;;;;7.88;4.00;;;20.50;59.60;;;;;;7839638;28;20193;-47
2022/03/11 08:52:45;;;;;;;6.25;4.03;;;20.60;59.60;;;;;;7851563;28;20297;-47
2022/03/11 08:56:30;;;;;;;8.15;4.47;;;20.50;59.90;;;;;;7839123;28;20174;-47
2022/03/11 09:00:21;;;;;;;6.50;4.18;;;20.50;59.80;;;;;;7839055;28;20174;-47
2022/03/11 09:04:07;;;;;;;10.38;3.80;;;20.50;59.60;;;;;;7839463;28;20228;-46
2022/03/11 09:07:52;;;;;;;7.97;3.80;;;20.50;60.00;;;;;;7839376;28;20201;-46
2022/03/11 09:11:38;;;;;;;9.88;3.95;;;20.50;59.80;;;;;;7838209;28;20194;-45
2022/03/11 09:15:24;;;;;;;10.32;4.03;;;20.50;60.00;;;;;;7839022;28;20182;-46
2022/03/11 09:19:10;;;;;;;12.48;3.97;;;20.50;59.90;;;;;;7837855;28;20185;-46
2022/03/11 09:22:56;;;;;;;9.18;4.10;;;20.50;60.20;;;;;;7838451;28;20225;-46
2022/03/11 09:26:41;;;;;;;8.65;4.07;;;20.50;60.00;;;;;;7838610;28;20185;-47
2022/03/11 09:30:27;;;;;;;5.25;3.67;;;20.50;59.70;;;;;;7837967;28;20190;-47
2022/03/11 09:34:13;;;;;;;12.02;4.35;;;20.50;59.80;;;;;;7838035;28;20210;-47
2022/03/11 09:37:58;;;;;;;9.93;4.03;;;20.50;60.00;;;;;;7838217;28;20265;-46
2022/03/11 09:41:45;;;;;;;12.60;4.57;;;20.50;60.00;;;;;;7838232;28;20220;-47
2022/03/11 09:45:31;;;;;;;10.70;4.45;;;20.50;59.80;;;;;;7838007;28;20170;-46
2022/03/11 09:49:17;;;;;;;8.43;4.10;;;20.50;59.80;;;;;;7839423;28;20181;-47
2022/03/11 09:53:03;;;;;;;11.70;4.10;;;20.50;60.00;;;;;;7844102;28;20621;-45
2022/03/11 09:56:48;;;;;;;21.52;4.43;;;20.50;60.00;;;;;;7841981;28;20188;-45
2022/03/11 10:00:34;;;;;;;6.40;4.30;;;20.50;60.10;;;;;;7843709;28;20185;-47
2022/03/11 10:04:20;;;;;;;8.70;3.75;;;20.50;60.00;;;;;;7843865;28;20275;-46
2022/03/11 10:08:06;;;;;;;12.63;4.00;;;20.50;60.00;;;;;;7844378;28;20636;-45
2022/03/11 10:11:53;;;;;;;9.20;4.38;;;20.50;60.10;;;;;;7843634;28;20202;-46
2022/03/11 10:15:40;;;;;;;7.80;4.13;;;20.50;60.00;;;;;;7843997;28;20658;-47
2022/03/11 10:19:26;;;;;;;7.50;4.05;;;20.50;60.00;;;;;;7843446;28;20174;-46
2022/03/11 10:23:13;;;;;;;5.25;3.50;;;20.50;60.20;;;;;;7843544;28;20209;-47
2022/03/11 10:27:01;;;;;;;5.07;3.33;;;20.50;60.20;;;;;;7837904;28;20267;-47
2022/03/11 10:30:47;;;;;;;7.78;3.65;;;20.50;60.30;;;;;;7843041;28;20174;-46
2022/03/11 10:34:34;;;;;;;10.68;3.80;;;20.50;60.50;;;;;;7843237;28;20213;-45
2022/03/11 10:38:26;;;;;;;7.30;3.60;;;20.50;60.30;;;;;;7845945;28;20190;-47
2022/03/11 10:42:11;;;;;;;12.70;4.45;;;20.50;60.60;;;;;;7870985;28;20286;-46
2022/03/11 10:46:03;;;;;;;8.05;3.50;;;20.50;60.90;;;;;;7841617;28;20186;-46
2022/03/11 10:49:54;;;;;;;8.63;4.30;;;20.50;60.80;;;;;;7842317;28;20259;-45
2022/03/11 10:53:40;;;;;;;8.13;4.20;;;20.50;60.50;;;;;;7842291;28;20292;-46
2022/03/11 10:57:38;;;;;;;8.73;4.13;;;20.50;60.50;;;;;;7843286;28;20188;-45
2022/03/11 11:01:35;;;;;;;12.55;4.53;;;20.50;60.40;;;;;;7841541;28;20209;-47
2022/03/11 11:05:22;;;;;;;8.82;4.00;;;20.50;60.50;;;;;;7842226;28;20714;-48
2022/03/11 11:09:10;;;;;;;15.27;4.68;;;20.50;60.80;;;;;;7842075;28;20174;-46
2022/03/11 11:12:55;;;;;;;7.75;4.25;;;20.50;60.20;;;;;;7841830;28;20206;-46
2022/03/11 11:16:43;;;;;;;11.13;4.63;;;20.50;60.10;;;;;;7841978;28;20235;-47
2022/03/11 11:21:01;;;;;;;10.57;4.07;;;20.50;60.10;;;;;;7841587;28;20675;-48
2022/03/11 11:24:49;;;;;;;10.25;4.00;;;20.50;60.00;;;;;;7776146;28;20594;-48
2022/03/11 11:28:35;;;;;;;13.90;5.47;;;20.50;60.00;;;;;;7775988;28;20246;-47
2022/03/11 11:32:21;;;;;;;12.52;5.57;;;20.40;59.40;;;;;;7775222;28;20207;-46
2022/03/11 11:36:07;;;;;;;7.68;5.45;;;20.50;59.60;;;;;;7775779;28;20190;-47
2022/03/11 11:39:53;;;;;;;9.50;5.10;;;20.40;59.30;;;;;;7775332;28;20202;-47
2022/03/11 11:43:52;;;;;;;10.68;4.80;;;20.40;59.60;;;;;;7775495;28;20685;-47
2022/03/11 11:47:37;;;;;;;8.70;5.38;;;20.40;59.80;;;;;;7803118;28;20277;-46
2022/03/11 11:51:43;;;;;;;11.27;5.80;;;20.40;60.00;;;;;;7805806;28;20182;-46
2022/03/11 11:55:39;;;;;;;6.75;4.88;;;20.40;60.50;;;;;;7805578;28;20191;-46
2022/03/11 11:59:27;;;;;;;11.95;6.28;;;20.40;59.70;;;;;;7817698;28;20181;-47
2022/03/11 12:03:15;;;;;;;9.80;6.15;;;20.40;59.70;;;;;;7858887;28;20260;-46
2022/03/11 12:07:09;;;;;;;8.85;4.85;;;20.40;59.90;;;;;;7840615;28;20210;-46
2022/03/11 12:10:54;;;;;;;8.73;5.07;;;20.40;60.00;;;;;;7839333;28;20186;-46
2022/03/11 12:15:04;;;;;;;9.35;5.65;;;20.40;60.00;;;;;;7847132;28;20221;-46
2022/03/11 12:18:50;;;;;;;8.75;4.55;;;20.40;60.00;;;;;;7871049;28;20202;-46
2022/03/11 12:22:36;;;;;;;7.55;4.53;;;20.40;60.20;;;;;;7870516;28;20260;-46
2022/03/11 12:26:35;;;;;;;7.57;4.90;;;20.40;60.20;;;;;;7871184;28;20185;-47
2022/03/11 12:30:20;;;;;;;7.07;4.20;;;20.40;60.20;;;;;;7870913;28;20676;-47
2022/03/11 12:34:11;;;;;;;8.50;4.70;;;20.40;60.20;;;;;;7853581;28;20560;-45
2022/03/11 12:37:57;;;;;;;6.78;5.18;;;20.40;60.40;;;;;;7839985;28;20178;-47
2022/03/11 12:41:43;;;;;;;7.57;4.65;;;20.40;60.20;;;;;;7849982;28;20213;-45
2022/03/11 12:45:43;;;;;;;9.20;4.22;;;20.40;60.40;;;;;;7838952;28;20190;-45
2022/03/11 12:49:28;;;;;;;7.90;4.40;;;20.40;60.60;;;;;;7839102;28;20312;-46
2022/03/11 12:53:15;;;;;;;10.05;4.53;;;20.40;61.70;;;;;;7854280;28;20276;-46
2022/03/11 12:57:01;;;;;;;8.98;4.28;;;20.40;60.60;;;;;;7842320;28;20217;-47
2022/03/11 13:00:47;;;;;;;8.75;4.60;;;20.40;61.00;;;;;;7838510;28;20185;-46
2022/03/11 13:04:42;;;;;;;11.27;4.30;;;20.40;60.70;;;;;;7838606;28;20308;-49
2022/03/11 13:08:29;;;;;;;9.50;4.70;;;20.40;60.80;;;;;;7838601;28;20185;-47
2022/03/11 13:12:27;;;;;;;6.00;4.40;;;20.40;61.20;;;;;;7837910;28;20220;-47
2022/03/11 13:16:12;;;;;;;12.93;4.55;;;20.40;61.70;;;;;;7838527;28;20268;-47
2022/03/11 13:19:58;;;;;;;6.15;3.85;;;20.40;62.80;;;;;;7837924;28;20185;-45
2022/03/11 13:23:48;;;;;;;8.73;4.07;;;20.40;62.70;;;;;;7837885;28;20202;-47
2022/03/11 13:27:37;;;;;;;7.22;4.55;;;20.40;62.50;;;;;;7838278;28;20181;-46
2022/03/11 13:31:29;;;;;;;13.93;4.25;;;20.40;62.40;;;;;;7838237;28;20177;-47
2022/03/11 13:35:27;;;;;;;17.75;4.40;;;20.40;63.50;;;;;;7837682;28;20240;-47
2022/03/11 13:39:14;;;;;;;14.52;5.07;;;20.40;64.30;;;;;;7837806;28;20189;-46
2022/03/11 13:43:02;;;;;;;7.38;4.63;;;20.40;63.50;;;;;;7837856;28;20193;-46
2022/03/11 13:47:11;;;;;;;16.92;4.60;;;20.40;63.50;;;;;;7837950;28;20239;-45
2022/03/11 13:51:14;;;;;;;14.93;5.13;;;20.40;63.00;;;;;;7826464;28;20644;-46
2022/03/11 13:55:05;;;;;;;9.15;4.57;;;20.40;64.10;;;;;;7858891;28;20209;-47
2022/03/11 13:58:51;;;;;;;13.27;5.18;;;20.40;63.50;;;;;;7866473;28;20535;-46
2022/03/11 14:02:38;;;;;;;9.25;4.90;;;20.40;64.10;;;;;;7867554;28;20299;-45
2022/03/11 14:06:33;;;;;;;8.70;4.13;;;20.40;64.50;;;;;;7861067;28;20182;-46
2022/03/11 14:10:20;;;;;;;10.38;4.75;;;20.40;64.90;;;;;;7836552;28;20192;-45
2022/03/11 14:14:30;;;;;;;7.07;3.97;;;20.40;64.40;;;;;;7840989;28;20338;-46
2022/03/11 14:18:20;;;;;;;9.60;4.00;;;20.40;64.70;;;;;;7837466;28;20177;-45
2022/03/11 14:22:05;;;;;;;6.50;4.38;;;20.40;64.50;;;;;;7841436;28;20202;-45
2022/03/11 14:25:50;;;;;;;10.90;4.40;;;20.40;64.40;;;;;;7837610;28;20925;-46
2022/03/11 14:29:36;;;;;;;10.05;4.43;;;20.30;64.60;;;;;;7860374;28;20182;-47
2022/03/11 14:33:21;;;;;;;11.00;4.47;;;20.30;64.00;;;;;;7868237;28;20686;-46
2022/03/11 14:37:07;;;;;;;8.57;4.10;;;20.40;64.10;;;;;;7873217;28;20173;-46
2022/03/11 14:40:53;;;;;;;7.05;4.25;;;20.30;64.70;;;;;;7873614;28;20177;-46
2022/03/11 14:44:38;;;;;;;14.45;3.95;;;20.30;65.00;;;;;;7873938;28;20201;-47
2022/03/11 14:48:24;;;;;;;7.30;3.70;;;20.30;64.20;;;;;;7873640;28;20536;-46
2022/03/11 14:52:11;;;;;;;12.82;4.30;;;20.30;64.80;;;;;;7873006;28;20212;-46
2022/03/11 14:55:56;;;;;;;8.68;3.80;;;20.30;64.80;;;;;;7873432;28;20189;-46
2022/03/11 14:59:42;;;;;;;17.10;4.07;;;20.30;64.40;;;;;;7862848;28;20182;-46
2022/03/11 15:03:27;;;;;;;7.90;4.45;;;20.30;63.50;;;;;;7841909;28;20221;-46
2022/03/11 15:07:13;;;;;;;7.45;3.97;;;20.30;63.90;;;;;;7858867;28;20173;-46
2022/03/11 15:10:59;;;;;;;8.75;4.30;;;20.30;63.60;;;;;;7866754;28;20228;-46
2022/03/11 15:14:45;;;;;;;7.38;4.18;;;20.30;63.50;;;;;;7872650;28;20267;-46
2022/03/11 15:18:31;;;;;;;7.72;4.07;;;20.20;62.50;;;;;;7872755;28;20643;-45
2022/03/11 15:22:16;;;;;;;10.05;4.18;;;20.20;62.80;;;;;;7872349;28;20197;-46
2022/03/11 15:26:02;;;;;;;9.77;4.18;;;20.30;63.10;;;;;;7872745;28;20643;-47
2022/03/11 15:29:47;;;;;;;8.60;3.92;;;20.30;62.60;;;;;;7871953;28;20181;-45
2022/03/11 15:33:34;;;;;;;7.18;3.60;;;20.30;62.70;;;;;;7872544;28;20266;-47
2022/03/11 15:37:19;;;;;;;8.88;4.22;;;20.20;63.90;;;;;;7872684;28;20213;-47
2022/03/11 15:41:05;;;;;;;7.15;4.22;;;20.20;64.40;;;;;;7872026;28;20185;-46
2022/03/11 15:44:50;;;;;;;11.18;3.80;;;20.20;63.20;;;;;;7872373;28;20189;-46
2022/03/11 15:48:36;;;;;;;8.23;4.32;;;20.20;63.10;;;;;;7871776;28;20181;-46
2022/03/11 15:52:21;;;;;;;7.30;4.13;;;20.20;62.10;;;;;;7861168;28;20213;-47
2022/03/11 15:56:07;;;;;;;12.23;4.45;;;20.20;61.90;;;;;;7840718;28;20184;-45
2022/03/11 15:59:52;;;;;;;7.32;3.80;;;20.20;61.50;;;;;;7840157;28;20170;-45
2022/03/11 16:03:44;;;;;;;6.68;3.83;;;20.20;61.60;;;;;;7840118;28;20714;-46
2022/03/11 16:07:30;;;;;;;9.82;4.20;;;20.20;61.40;;;;;;7839652;28;20574;-46
2022/03/11 16:11:15;;;;;;;6.18;3.85;;;20.10;61.40;;;;;;7839453;28;20283;-45
2022/03/11 16:15:02;;;;;;;5.43;4.05;;;20.10;61.40;;;;;;7882858;28;20205;-46
2022/03/11 16:18:47;;;;;;;9.00;4.03;;;20.10;61.10;;;;;;7902088;28;20335;-47
2022/03/11 16:22:33;;;;;;;6.20;3.83;;;20.10;61.10;;;;;;7901938;28;20673;-46
2022/03/11 16:26:18;;;;;;;8.43;4.10;;;20.10;61.00;;;;;;7902206;28;20184;-47
2022/03/11 16:30:05;;;;;;;7.72;4.80;;;20.10;60.80;;;;;;7901725;28;20822;-47
2022/03/11 16:33:51;;;;;;;5.72;3.88;;;20.10;60.80;;;;;;7901580;28;20216;-50
2022/03/11 16:37:36;;;;;;;5.75;4.10;;;20.10;60.80;;;;;;7902037;28;20260;-47
2022/03/11 16:41:22;;;;;;;5.30;3.55;;;20.10;60.70;;;;;;7901542;28;20169;-46
2022/03/11 16:45:08;;;;;;;7.65;4.10;;;20.10;60.60;;;;;;7888660;28;20177;-46
2022/03/11 16:48:53;;;;;;;5.97;4.03;;;20.10;60.50;;;;;;7870145;28;20178;-46
2022/03/11 16:52:39;;;;;;;6.05;3.80;;;20.00;60.30;;;;;;7869413;28;20240;-46
2022/03/11 16:56:24;;;;;;;7.45;3.92;;;20.00;60.30;;;;;;7869770;28;20173;-48
2022/03/11 17:00:10;;;;;;;15.77;3.97;;;20.00;60.80;;;;;;7855444;28;20219;-46
2022/03/11 17:03:56;;;;;;;12.13;4.22;;;20.00;60.50;;;;;;7858548;28;20298;-46
2022/03/11 17:07:43;;;;;;;8.52;4.38;;;20.00;60.20;;;;;;7837333;28;20193;-48
2022/03/11 17:11:29;;;;;;;8.15;4.40;;;20.00;60.00;;;;;;7837266;28;20201;-46
2022/03/11 17:15:14;;;;;;;9.77;4.50;;;20.00;59.60;;;;;;7838396;28;20240;-47
2022/03/11 17:19:04;;;;;;;10.48;4.75;;;20.00;59.50;;;;;;7837919;28;20213;-45
2022/03/11 17:22:50;;;;;;;8.25;4.20;;;20.00;59.60;;;;;;7848748;28;20213;-46
2022/03/11 17:26:36;;;;;;;17.20;4.65;;;20.00;59.60;;;;;;7840969;28;20664;-45
2022/03/11 17:30:21;;;;;;;15.40;5.00;;;20.00;60.20;;;;;;7837553;28;20186;-46
2022/03/11 17:34:07;;;;;;;26.52;4.82;;;20.00;60.20;;;;;;7837889;28;20209;-46
2022/03/11 17:37:53;;;;;;;16.67;4.55;;;20.10;60.40;;;;;;7838164;28;20174;-46
2022/03/11 17:41:38;;;;;;;12.68;3.95;;;20.10;61.20;;;;;;7837916;28;20193;-48
2022/03/11 17:45:25;;;;;;;12.55;4.30;;;20.20;61.40;;;;;;7838772;28;20193;-46
2022/03/11 17:49:11;;;;;;;17.73;3.90;;;20.20;62.00;;;;;;7837841;28;20198;-46
2022/03/11 17:52:58;;;;;;;18.45;4.53;;;20.30;62.70;;;;;;7837191;28;20695;-48
2022/03/11 17:56:44;;;;;;;22.85;6.05;;;20.30;60.10;;;;;;7837825;28;20166;-46
2022/03/11 18:00:29;;;;;;;21.98;4.38;;;20.30;63.00;;;;;;7837800;28;20182;-46
2022/03/11 18:04:15;;;;;;;20.52;5.47;;;20.30;64.10;;;;;;7837443;28;20214;-47
2022/03/11 18:08:01;;;;;;;27.77;4.55;;;20.40;64.50;;;;;;7837620;28;20186;-46
2022/03/11 18:11:47;;;;;;;16.70;4.65;;;20.50;64.80;;;;;;7841653;28;20198;-45
2022/03/11 18:15:33;;;;;;;21.77;4.18;;;20.70;64.80;;;;;;7843817;28;20217;-46
2022/03/11 18:19:19;;;;;;;17.38;4.30;;;20.80;64.90;;;;;;7843484;28;20193;-47
2022/03/11 18:23:05;;;;;;;14.77;4.38;;;21.00;64.90;;;;;;7843535;28;20194;-46
2022/03/11 18:26:51;;;;;;;13.15;4.43;;;21.20;64.80;;;;;;7843467;28;20666;-46
2022/03/11 18:30:36;;;;;;;13.63;4.22;;;21.30;64.70;;;;;;7843146;28;20646;-46
2022/03/11 18:34:22;;;;;;;12.65;3.97;;;21.50;64.70;;;;;;7843089;28;20224;-47
2022/03/11 18:38:08;;;;;;;15.38;5.25;;;21.50;64.70;;;;;;7842560;28;20561;-47
2022/03/11 18:41:55;;;;;;;12.68;4.20;;;21.70;64.60;;;;;;7842722;28;20650;-46
2022/03/11 18:45:41;;;;;;;13.38;3.72;;;21.70;64.50;;;;;;7842896;28;20185;-46
2022/03/11 18:49:28;;;;;;;9.63;3.55;;;21.80;64.50;;;;;;7842582;28;20249;-46
2022/03/11 18:53:15;;;;;;;14.77;3.67;;;21.90;64.40;;;;;;7842497;28;20851;-47
2022/03/11 18:57:01;;;;;;;11.52;4.13;;;21.90;64.40;;;;;;7842671;28;20213;-46
2022/03/11 19:00:46;;;;;;;11.82;4.18;;;21.90;64.40;;;;;;7842287;28;20174;-47
2022/03/11 19:04:32;;;;;;;6.30;3.70;;;21.90;64.40;;;;;;7842247;28;20221;-48
2022/03/11 19:08:18;;;;;;;12.15;3.35;;;21.90;64.40;;;;;;7855680;28;20584;-46
2022/03/11 19:12:05;;;;;;;8.27;3.40;;;21.90;64.00;;;;;;7872809;28;20242;-45
2022/03/11 19:15:51;;;;;;;8.68;3.83;;;21.90;64.40;;;;;;7873366;28;20185;-46
2022/03/11 19:19:36;;;;;;;8.20;3.33;;;21.90;64.50;;;;;;7873109;28;20178;-46
2022/03/11 19:23:22;;;;;;;12.35;3.65;;;21.80;64.50;;;;;;7872567;28;20197;-46
2022/03/11 19:27:07;;;;;;;12.93;3.42;;;21.80;64.60;;;;;;7872891;28;20185;-46
2022/03/11 19:30:53;;;;;;;11.00;3.22;;;21.80;64.50;;;;;;7872532;28;20181;-46
2022/03/11 19:34:38;;;;;;;5.93;3.20;;;21.70;64.50;;;;;;7872415;28;20685;-46